Pagina principale
METAR-TAF:

METAR-TAF

Aeroporti :

Latina, Italia

Aeroporto di Latina

latitudine: 41-33N, longitudine: 012-54E, altezza: 25 m

Osservazione

Il bollettino è stato emesso 6 ore e 56 minuti fa, alle 17:55 UTC
Temperature 12°C
Umidità 100%
Pressione 1013 hPa
Visibilità 10 km o più
Poco nuvoloso ad un'altezza di 2000 ft
Nuvoloso ad un'altezza di 4000 ft

METAR: LIRL 161755Z /////KT 9999 FEW020 BKN040 12/12 Q1013

Ora: 01:51 (00:51 UTC)

Previsione

Il bollettino è stato emesso 7 ore e 51 minuti fa, alle 17:00 UTC
Previsione valida dal 16 alle 18 UTC al 17 alle 03 UTC
Vento 5 kt da ovest/sud-ovest
Visibilità: 9000 m
Poco nuvoloso ad un'altezza di 2000 ft
Nuvoloso ad un'altezza di 3000 ft
Temporaneamente
dal 16 alle 17 UTC al 16 alle 21 UTC
Visibilità: 5000 m
Nubi sparse ad un'altezza di 2000 ft
Nuvoloso ad un'altezza di 2500 ft
pioggia, foschia

TAF: LIRL 161700Z 1618/1703 25005KT 9000 FEW020 BKN030 TEMPO 1617/1621 5000 RA BR SCT020 BKN025

Osservazioni e previsioni meteorologiche di più di 4000 aeroporti (messaggi METAR e TAF).

Le stazioni disponibili sono rappresentate dai dischi gialli e rossi sulla carta.

Puntare il mouse per vedere il nome della stazione.

Clicca sopra per visualizzare le osservazioni e previsioni meteorologiche.

Per cambiare la mappa : fare clic sui pulsanti verdi con una croce nera per ingrandire, il pulsante verde con un trattino per diminuire, o sulla freccia verde per le mappe adiacenti.


METAR-TAF: